Pincher Creek, Canada
Current Conditions -  °F | °C
As of 12:40 AM on Saturday 29 Nov 2014 (Local Time) from CZPC Reporting Station
Light Snow Light Snow  
Wind Chill: -27°   Ceiling: 1000
Heat Index: -9°   Visibility: 1mi
Dew Point: -13°   Wind: 9mph
Humidity: 84%   Direction: 90°E
Pressure: 29.65"   Gusts: NA
Location:  49.49°N, 113.95°W
Report Text: CZPC 290740Z AUTO 09008KT 1SM -SN VV010 M23/M25 A2965 RMK PCPN 2.0MM PAST HR SLP150
Loading
Personal Weather Stations






























Interactive Weather Map New forecast layout! Learn more

10-Day Weather Forecast

Advertisements
Track Severe Weather on mobile